sensor_id;sensor_type;location;lat;lon;timestamp;pressure;altitude;pressure_sealevel;temperature;humidity
34081;BME280;20358;50.272;19.026;2022-08-11T00:01:48;99044.03;;;16.94;54.96
34081;BME280;20358;50.272;19.026;2022-08-11T00:05:02;99044.31;;;17.02;54.47
34081;BME280;20358;50.272;19.026;2022-08-11T00:08:09;99043.56;;;17.00;55.40
34081;BME280;20358;50.272;19.026;2022-08-11T00:11:18;99044.03;;;16.94;54.89
34081;BME280;20358;50.272;19.026;2022-08-11T00:14:32;99040.81;;;16.89;56.63
34081;BME280;20358;50.272;19.026;2022-08-11T00:17:40;99039.75;;;16.91;55.58
34081;BME280;20358;50.272;19.026;2022-08-11T00:20:49;99035.09;;;16.95;55.65
34081;BME280;20358;50.272;19.026;2022-08-11T00:24:00;99032.56;;;16.93;56.09
34081;BME280;20358;50.272;19.026;2022-08-11T00:27:07;99028.13;;;17.06;56.12
34081;BME280;20358;50.272;19.026;2022-08-11T00:30:19;99026.13;;;17.10;55.54
34081;BME280;20358;50.272;19.026;2022-08-11T00:33:32;99026.75;;;17.01;56.22
34081;BME280;20358;50.272;19.026;2022-08-11T00:36:50;99027.28;;;16.93;56.14
34081;BME280;20358;50.272;19.026;2022-08-11T00:39:57;99030.22;;;16.89;55.92
34081;BME280;20358;50.272;19.026;2022-08-11T00:43:14;99029.41;;;16.88;56.33
34081;BME280;20358;50.272;19.026;2022-08-11T00:46:32;99026.63;;;16.90;56.24
34081;BME280;20358;50.272;19.026;2022-08-11T00:49:53;99030.47;;;16.86;56.26
34081;BME280;20358;50.272;19.026;2022-08-11T00:53:24;99029.28;;;16.77;56.65
34081;BME280;20358;50.272;19.026;2022-08-11T01:01:04;99024.72;;;16.79;56.62
34081;BME280;20358;50.272;19.026;2022-08-11T01:12:34;99032.16;;;16.62;57.49
34081;BME280;20358;50.272;19.026;2022-08-11T01:23:55;99022.94;;;16.42;57.77
34081;BME280;20358;50.272;19.026;2022-08-11T01:27:19;99019.44;;;16.29;58.01
34081;BME280;20358;50.272;19.026;2022-08-11T01:31:14;99016.13;;;16.25;58.68
34081;BME280;20358;50.272;19.026;2022-08-11T01:42:49;99019.84;;;16.09;58.80
34081;BME280;20358;50.272;19.026;2022-08-11T01:46:23;99018.69;;;16.00;59.01
34081;BME280;20358;50.272;19.026;2022-08-11T01:49:38;99013.81;;;15.94;59.08
34081;BME280;20358;50.272;19.026;2022-08-11T01:53:22;99020.44;;;15.87;59.05
34081;BME280;20358;50.272;19.026;2022-08-11T01:56:37;99020.09;;;15.79;59.60
34081;BME280;20358;50.272;19.026;2022-08-11T01:59:55;99016.06;;;15.73;59.99
34081;BME280;20358;50.272;19.026;2022-08-11T02:03:15;99013.06;;;15.65;60.01
34081;BME280;20358;50.272;19.026;2022-08-11T02:06:30;99010.72;;;15.61;60.09
34081;BME280;20358;50.272;19.026;2022-08-11T02:10:10;99007.91;;;15.50;60.29
34081;BME280;20358;50.272;19.026;2022-08-11T02:13:45;99020.47;;;15.46;60.47
34081;BME280;20358;50.272;19.026;2022-08-11T02:17:06;99008.97;;;15.47;61.20
34081;BME280;20358;50.272;19.026;2022-08-11T02:20:21;99013.38;;;15.47;61.21
34081;BME280;20358;50.272;19.026;2022-08-11T02:23:50;99010.84;;;15.45;61.25
34081;BME280;20358;50.272;19.026;2022-08-11T02:27:17;99018.03;;;15.43;61.39
34081;BME280;20358;50.272;19.026;2022-08-11T02:30:27;99014.63;;;15.41;61.49
34081;BME280;20358;50.272;19.026;2022-08-11T02:33:41;99010.59;;;15.36;61.64
34081;BME280;20358;50.272;19.026;2022-08-11T02:36:59;99019.75;;;15.30;61.63
34081;BME280;20358;50.272;19.026;2022-08-11T02:40:16;99018.34;;;15.24;61.58
34081;BME280;20358;50.272;19.026;2022-08-11T02:43:29;99019.47;;;15.20;61.88
34081;BME280;20358;50.272;19.026;2022-08-11T02:46:50;99016.84;;;15.20;61.69
34081;BME280;20358;50.272;19.026;2022-08-11T02:50:17;99012.41;;;15.21;62.03
34081;BME280;20358;50.272;19.026;2022-08-11T02:53:29;99017.06;;;15.17;61.97
34081;BME280;20358;50.272;19.026;2022-08-11T02:56:44;99006.69;;;15.14;62.16
34081;BME280;20358;50.272;19.026;2022-08-11T03:00:02;99010.41;;;15.10;61.95
34081;BME280;20358;50.272;19.026;2022-08-11T03:03:17;99010.41;;;15.10;62.56
34081;BME280;20358;50.272;19.026;2022-08-11T03:06:40;99014.75;;;15.11;62.18
34081;BME280;20358;50.272;19.026;2022-08-11T03:09:54;99004.28;;;15.10;62.00
34081;BME280;20358;50.272;19.026;2022-08-11T03:13:09;99005.97;;;15.11;62.43
34081;BME280;20358;50.272;19.026;2022-08-11T03:16:42;99013.75;;;15.14;62.93
34081;BME280;20358;50.272;19.026;2022-08-11T03:20:02;99012.69;;;15.16;63.13
34081;BME280;20358;50.272;19.026;2022-08-11T03:23:17;99012.78;;;15.15;62.15
34081;BME280;20358;50.272;19.026;2022-08-11T03:26:37;99023.72;;;15.09;62.51
34081;BME280;20358;50.272;19.026;2022-08-11T03:30:02;99022.28;;;15.03;62.38
34081;BME280;20358;50.272;19.026;2022-08-11T03:33:18;99037.19;;;15.04;62.43
34081;BME280;20358;50.272;19.026;2022-08-11T03:37:05;99029.72;;;14.97;62.81
34081;BME280;20358;50.272;19.026;2022-08-11T03:40:57;99036.34;;;14.90;63.10
34081;BME280;20358;50.272;19.026;2022-08-11T03:44:54;99026.19;;;14.84;62.71
34081;BME280;20358;50.272;19.026;2022-08-11T03:48:14;99014.59;;;14.86;63.35
34081;BME280;20358;50.272;19.026;2022-08-11T03:51:30;99021.53;;;14.87;63.58
34081;BME280;20358;50.272;19.026;2022-08-11T03:55:00;99022.50;;;14.86;64.17
34081;BME280;20358;50.272;19.026;2022-08-11T03:58:35;99030.31;;;14.88;64.00
34081;BME280;20358;50.272;19.026;2022-08-11T04:02:07;99021.81;;;14.83;63.82
34081;BME280;20358;50.272;19.026;2022-08-11T04:05:35;99021.09;;;14.81;64.30
34081;BME280;20358;50.272;19.026;2022-08-11T04:09:12;99014.22;;;14.78;64.44
34081;BME280;20358;50.272;19.026;2022-08-11T04:13:07;99015.50;;;14.85;64.40
34081;BME280;20358;50.272;19.026;2022-08-11T04:16:38;99009.88;;;14.91;64.63
34081;BME280;20358;50.272;19.026;2022-08-11T04:23:55;99006.28;;;15.06;64.24
34081;BME280;20358;50.272;19.026;2022-08-11T04:35:33;99011.53;;;15.34;63.53
34081;BME280;20358;50.272;19.026;2022-08-11T04:39:10;99012.63;;;15.59;63.91
34081;BME280;20358;50.272;19.026;2022-08-11T04:46:56;99011.63;;;15.74;64.19
34081;BME280;20358;50.272;19.026;2022-08-11T04:50:21;99016.72;;;15.77;64.16
34081;BME280;20358;50.272;19.026;2022-08-11T04:54:22;99019.66;;;15.85;63.82
34081;BME280;20358;50.272;19.026;2022-08-11T04:58:02;99028.19;;;15.90;63.18
34081;BME280;20358;50.272;19.026;2022-08-11T05:01:47;99032.19;;;15.95;63.28
34081;BME280;20358;50.272;19.026;2022-08-11T05:05:14;99031.91;;;16.00;63.67
34081;BME280;20358;50.272;19.026;2022-08-11T05:09:03;99029.88;;;16.04;63.79
34081;BME280;20358;50.272;19.026;2022-08-11T05:12:39;99019.59;;;16.13;63.30
34081;BME280;20358;50.272;19.026;2022-08-11T05:15:50;99024.47;;;16.19;63.43
34081;BME280;20358;50.272;19.026;2022-08-11T05:19:15;99023.66;;;16.31;63.31
34081;BME280;20358;50.272;19.026;2022-08-11T05:22:48;99019.44;;;16.41;63.48
34081;BME280;20358;50.272;19.026;2022-08-11T05:26:13;99012.44;;;16.53;63.55
34081;BME280;20358;50.272;19.026;2022-08-11T05:29:59;99022.81;;;16.69;63.13
34081;BME280;20358;50.272;19.026;2022-08-11T05:33:29;99018.16;;;16.85;63.23
34081;BME280;20358;50.272;19.026;2022-08-11T05:37:01;99017.81;;;17.02;63.04
34081;BME280;20358;50.272;19.026;2022-08-11T05:40:29;99019.88;;;17.11;61.93
34081;BME280;20358;50.272;19.026;2022-08-11T05:43:57;99019.22;;;17.20;62.31
34081;BME280;20358;50.272;19.026;2022-08-11T05:47:26;99018.34;;;17.32;62.19
34081;BME280;20358;50.272;19.026;2022-08-11T05:50:51;99010.88;;;17.50;61.94
34081;BME280;20358;50.272;19.026;2022-08-11T05:54:18;99017.31;;;17.58;61.41
34081;BME280;20358;50.272;19.026;2022-08-11T05:57:41;99021.00;;;17.68;61.43
34081;BME280;20358;50.272;19.026;2022-08-11T06:00:53;99020.94;;;17.81;61.58
34081;BME280;20358;50.272;19.026;2022-08-11T06:04:05;99022.56;;;17.95;60.95
34081;BME280;20358;50.272;19.026;2022-08-11T06:07:26;99023.84;;;18.02;61.00
34081;BME280;20358;50.272;19.026;2022-08-11T06:10:51;99030.16;;;18.12;60.65
34081;BME280;20358;50.272;19.026;2022-08-11T06:14:05;99037.53;;;18.19;60.55
34081;BME280;20358;50.272;19.026;2022-08-11T06:17:13;99041.31;;;18.28;60.17
34081;BME280;20358;50.272;19.026;2022-08-11T06:20:30;99042.34;;;18.49;59.84
34081;BME280;20358;50.272;19.026;2022-08-11T06:23:41;99041.59;;;18.47;60.10
34081;BME280;20358;50.272;19.026;2022-08-11T06:26:50;99045.88;;;18.72;59.89
34081;BME280;20358;50.272;19.026;2022-08-11T06:30:14;99041.00;;;18.89;59.50
34081;BME280;20358;50.272;19.026;2022-08-11T06:33:32;99049.94;;;18.99;59.37
34081;BME280;20358;50.272;19.026;2022-08-11T06:36:53;99059.59;;;19.00;59.02
34081;BME280;20358;50.272;19.026;2022-08-11T06:40:04;99057.91;;;19.11;58.82
34081;BME280;20358;50.272;19.026;2022-08-11T06:43:17;99053.31;;;19.24;58.79
34081;BME280;20358;50.272;19.026;2022-08-11T06:46:28;99047.28;;;19.33;58.76
34081;BME280;20358;50.272;19.026;2022-08-11T06:49:38;99050.91;;;19.32;58.67
34081;BME280;20358;50.272;19.026;2022-08-11T06:53:08;99048.63;;;19.27;58.58
34081;BME280;20358;50.272;19.026;2022-08-11T06:56:23;99051.63;;;19.23;58.84
34081;BME280;20358;50.272;19.026;2022-08-11T06:59:47;99048.25;;;19.21;59.19
34081;BME280;20358;50.272;19.026;2022-08-11T07:03:11;99055.63;;;19.28;58.99
34081;BME280;20358;50.272;19.026;2022-08-11T07:06:31;99046.56;;;19.42;58.63
34081;BME280;20358;50.272;19.026;2022-08-11T07:10:26;99047.50;;;19.52;58.41
34081;BME280;20358;50.272;19.026;2022-08-11T07:13:55;99047.72;;;19.60;58.24
34081;BME280;20358;50.272;19.026;2022-08-11T07:17:43;99044.56;;;19.77;58.03
34081;BME280;20358;50.272;19.026;2022-08-11T07:21:14;99039.69;;;19.93;57.43
34081;BME280;20358;50.272;19.026;2022-08-11T07:25:00;99037.72;;;20.06;57.43
34081;BME280;20358;50.272;19.026;2022-08-11T07:28:28;99039.53;;;20.38;57.06
34081;BME280;20358;50.272;19.026;2022-08-11T07:31:51;99039.16;;;20.63;55.80
34081;BME280;20358;50.272;19.026;2022-08-11T07:35:08;99041.91;;;20.72;54.92
34081;BME280;20358;50.272;19.026;2022-08-11T07:38:20;99035.78;;;20.81;54.90
34081;BME280;20358;50.272;19.026;2022-08-11T07:41:50;99046.78;;;20.88;54.89
34081;BME280;20358;50.272;19.026;2022-08-11T07:45:04;99043.22;;;21.08;54.66
34081;BME280;20358;50.272;19.026;2022-08-11T07:48:27;99046.84;;;21.28;53.72
34081;BME280;20358;50.272;19.026;2022-08-11T07:51:50;99041.94;;;21.33;53.22
34081;BME280;20358;50.272;19.026;2022-08-11T07:55:15;99049.25;;;21.40;52.87
34081;BME280;20358;50.272;19.026;2022-08-11T07:58:42;99041.41;;;21.39;53.31
34081;BME280;20358;50.272;19.026;2022-08-11T08:02:12;99042.25;;;21.39;53.09
34081;BME280;20358;50.272;19.026;2022-08-11T08:05:36;99040.31;;;21.41;53.38
34081;BME280;20358;50.272;19.026;2022-08-11T08:08:58;99038.88;;;21.37;53.19
34081;BME280;20358;50.272;19.026;2022-08-11T08:12:23;99040.31;;;21.41;53.35
34081;BME280;20358;50.272;19.026;2022-08-11T08:15:46;99037.81;;;21.59;53.04
34081;BME280;20358;50.272;19.026;2022-08-11T08:19:14;99035.31;;;21.67;52.70
34081;BME280;20358;50.272;19.026;2022-08-11T08:22:21;99031.69;;;21.78;52.50
34081;BME280;20358;50.272;19.026;2022-08-11T08:25:43;99031.44;;;21.90;52.43
34081;BME280;20358;50.272;19.026;2022-08-11T08:28:50;99031.56;;;21.89;51.27
34081;BME280;20358;50.272;19.026;2022-08-11T08:31:58;99027.91;;;21.90;51.29
34081;BME280;20358;50.272;19.026;2022-08-11T08:35:09;99029.19;;;21.86;50.70
34081;BME280;20358;50.272;19.026;2022-08-11T08:38:18;99027.25;;;21.97;50.00
34081;BME280;20358;50.272;19.026;2022-08-11T08:41:27;99024.69;;;21.96;50.00
34081;BME280;20358;50.272;19.026;2022-08-11T08:44:35;99025.56;;;21.96;49.82
34081;BME280;20358;50.272;19.026;2022-08-11T08:47:51;99027.47;;;21.85;49.55
34081;BME280;20358;50.272;19.026;2022-08-11T08:51:08;99025.22;;;21.71;50.07
34081;BME280;20358;50.272;19.026;2022-08-11T08:54:54;99009.75;;;21.65;50.11
34081;BME280;20358;50.272;19.026;2022-08-11T08:58:01;99002.19;;;21.70;49.51
34081;BME280;20358;50.272;19.026;2022-08-11T09:01:09;99008.66;;;21.77;48.79
34081;BME280;20358;50.272;19.026;2022-08-11T09:04:17;99014.03;;;21.86;49.40
34081;BME280;20358;50.272;19.026;2022-08-11T09:07:27;99013.16;;;21.95;47.61
34081;BME280;20358;50.272;19.026;2022-08-11T09:10:44;99012.66;;;22.01;47.93
34081;BME280;20358;50.272;19.026;2022-08-11T09:14:16;99010.69;;;22.03;47.47
34081;BME280;20358;50.272;19.026;2022-08-11T09:17:24;99006.88;;;22.06;48.03
34081;BME280;20358;50.272;19.026;2022-08-11T09:20:34;99007.72;;;22.16;47.70
34081;BME280;20358;50.272;19.026;2022-08-11T09:23:45;99002.81;;;22.21;47.16
34081;BME280;20358;50.272;19.026;2022-08-11T09:27:13;99007.31;;;22.30;46.84
34081;BME280;20358;50.272;19.026;2022-08-11T09:30:22;98998.31;;;22.31;46.77
34081;BME280;20358;50.272;19.026;2022-08-11T09:33:29;99006.16;;;22.42;47.11
34081;BME280;20358;50.272;19.026;2022-08-11T09:36:40;98999.66;;;22.54;46.65
34081;BME280;20358;50.272;19.026;2022-08-11T09:40:10;98999.66;;;22.54;46.15
34081;BME280;20358;50.272;19.026;2022-08-11T09:43:40;99003.59;;;22.60;45.89
34081;BME280;20358;50.272;19.026;2022-08-11T09:47:06;99005.31;;;22.51;45.13
34081;BME280;20358;50.272;19.026;2022-08-11T09:50:18;98994.91;;;22.48;46.30
34081;BME280;20358;50.272;19.026;2022-08-11T09:53:27;98991.56;;;22.46;46.39
34081;BME280;20358;50.272;19.026;2022-08-11T09:56:46;98988.97;;;22.54;46.32
34081;BME280;20358;50.272;19.026;2022-08-11T10:00:10;98981.41;;;22.69;46.54
34081;BME280;20358;50.272;19.026;2022-08-11T10:03:27;98974.00;;;23.00;45.92
34081;BME280;20358;50.272;19.026;2022-08-11T10:06:43;98976.25;;;23.22;45.97
34081;BME280;20358;50.272;19.026;2022-08-11T10:10:12;98966.19;;;23.43;45.42
34081;BME280;20358;50.272;19.026;2022-08-11T10:13:26;98967.88;;;23.44;44.22
34081;BME280;20358;50.272;19.026;2022-08-11T10:16:57;98975.78;;;23.36;44.60
34081;BME280;20358;50.272;19.026;2022-08-11T10:20:03;98965.81;;;23.38;44.44
34081;BME280;20358;50.272;19.026;2022-08-11T10:23:12;98961.13;;;23.40;44.17
34081;BME280;20358;50.272;19.026;2022-08-11T10:27:03;98971.34;;;23.54;44.30
34081;BME280;20358;50.272;19.026;2022-08-11T10:30:16;98965.31;;;23.52;44.34
34081;BME280;20358;50.272;19.026;2022-08-11T10:33:44;98963.50;;;23.70;43.88
34081;BME280;20358;50.272;19.026;2022-08-11T10:37:07;98960.91;;;23.78;43.58
34081;BME280;20358;50.272;19.026;2022-08-11T10:40:19;98955.22;;;23.81;43.60
34081;BME280;20358;50.272;19.026;2022-08-11T10:43:27;98944.50;;;23.81;44.02
34081;BME280;20358;50.272;19.026;2022-08-11T10:46:53;98942.84;;;23.98;43.19
34081;BME280;20358;50.272;19.026;2022-08-11T10:50:16;98946.06;;;24.02;43.61
34081;BME280;20358;50.272;19.026;2022-08-11T10:53:40;98939.69;;;24.03;43.30
34081;BME280;20358;50.272;19.026;2022-08-11T10:57:04;98940.56;;;23.85;41.13
34081;BME280;20358;50.272;19.026;2022-08-11T11:00:26;98940.97;;;23.63;42.42
34081;BME280;20358;50.272;19.026;2022-08-11T11:03:37;98943.81;;;23.62;42.66
34081;BME280;20358;50.272;19.026;2022-08-11T11:06:49;98932.81;;;23.65;42.21
34081;BME280;20358;50.272;19.026;2022-08-11T11:10:01;98925.25;;;23.60;42.27
34081;BME280;20358;50.272;19.026;2022-08-11T11:13:08;98926.72;;;23.55;42.67
34081;BME280;20358;50.272;19.026;2022-08-11T11:16:31;98909.03;;;23.44;42.13
34081;BME280;20358;50.272;19.026;2022-08-11T11:19:57;98898.06;;;23.38;41.82
34081;BME280;20358;50.272;19.026;2022-08-11T11:23:09;98899.56;;;23.50;42.04
34081;BME280;20358;50.272;19.026;2022-08-11T11:26:35;98888.41;;;23.54;42.49
34081;BME280;20358;50.272;19.026;2022-08-11T11:29:52;98892.69;;;23.47;42.21
34081;BME280;20358;50.272;19.026;2022-08-11T11:33:07;98880.31;;;23.46;42.35
34081;BME280;20358;50.272;19.026;2022-08-11T11:36:24;98876.41;;;23.58;41.97
34081;BME280;20358;50.272;19.026;2022-08-11T11:39:34;98885.97;;;23.78;42.55
34081;BME280;20358;50.272;19.026;2022-08-11T11:42:43;98879.13;;;24.02;42.12
34081;BME280;20358;50.272;19.026;2022-08-11T11:45:50;98886.78;;;24.14;40.59
34081;BME280;20358;50.272;19.026;2022-08-11T11:48:59;98876.69;;;24.08;41.74
34081;BME280;20358;50.272;19.026;2022-08-11T11:52:22;98883.19;;;24.06;40.79
34081;BME280;20358;50.272;19.026;2022-08-11T11:55:29;98866.91;;;23.99;40.64
34081;BME280;20358;50.272;19.026;2022-08-11T11:58:37;98869.03;;;23.96;40.22
34081;BME280;20358;50.272;19.026;2022-08-11T12:02:04;98852.19;;;24.03;40.56
34081;BME280;20358;50.272;19.026;2022-08-11T12:05:14;98846.44;;;24.16;40.66
34081;BME280;20358;50.272;19.026;2022-08-11T12:08:24;98846.25;;;24.35;40.97
34081;BME280;20358;50.272;19.026;2022-08-11T12:11:31;98848.53;;;24.56;40.45
34081;BME280;20358;50.272;19.026;2022-08-11T12:14:54;98860.66;;;24.42;39.90
34081;BME280;20358;50.272;19.026;2022-08-11T12:18:03;98857.06;;;24.25;40.61
34081;BME280;20358;50.272;19.026;2022-08-11T12:21:13;98857.16;;;24.16;41.10
34081;BME280;20358;50.272;19.026;2022-08-11T12:24:23;98851.06;;;24.06;41.25
34081;BME280;20358;50.272;19.026;2022-08-11T12:27:46;98845.63;;;23.98;41.70
34081;BME280;20358;50.272;19.026;2022-08-11T12:30:52;98834.22;;;23.96;41.39
34081;BME280;20358;50.272;19.026;2022-08-11T12:34:01;98844.88;;;23.87;41.05
34081;BME280;20358;50.272;19.026;2022-08-11T12:37:08;98839.63;;;23.78;40.10
34081;BME280;20358;50.272;19.026;2022-08-11T12:40:23;98832.09;;;23.81;40.00
34081;BME280;20358;50.272;19.026;2022-08-11T12:44:07;98819.16;;;23.95;39.93
34081;BME280;20358;50.272;19.026;2022-08-11T12:47:40;98820.31;;;24.10;39.80
34081;BME280;20358;50.272;19.026;2022-08-11T12:51:23;98811.38;;;24.27;38.96
34081;BME280;20358;50.272;19.026;2022-08-11T12:55:10;98806.06;;;24.35;38.99
34081;BME280;20358;50.272;19.026;2022-08-11T12:58:41;98815.75;;;24.36;39.30
34081;BME280;20358;50.272;19.026;2022-08-11T13:01:45;98799.22;;;24.40;38.78
34081;BME280;20358;50.272;19.026;2022-08-11T13:05:11;98795.03;;;24.38;38.65
34081;BME280;20358;50.272;19.026;2022-08-11T13:08:21;98798.88;;;24.35;39.83
34081;BME280;20358;50.272;19.026;2022-08-11T13:11:28;98803.16;;;24.28;39.83
34081;BME280;20358;50.272;19.026;2022-08-11T13:15:03;98791.09;;;24.24;40.35
34081;BME280;20358;50.272;19.026;2022-08-11T13:18:09;98791.28;;;24.31;39.60
34081;BME280;20358;50.272;19.026;2022-08-11T13:21:21;98789.94;;;24.27;39.77
34081;BME280;20358;50.272;19.026;2022-08-11T13:24:28;98779.41;;;24.33;40.21
34081;BME280;20358;50.272;19.026;2022-08-11T13:27:36;98773.16;;;24.51;40.03
34081;BME280;20358;50.272;19.026;2022-08-11T13:30:46;98778.41;;;24.68;39.13
34081;BME280;20358;50.272;19.026;2022-08-11T13:34:10;98774.56;;;24.71;38.32
34081;BME280;20358;50.272;19.026;2022-08-11T13:37:19;98769.31;;;24.53;37.52
34081;BME280;20358;50.272;19.026;2022-08-11T13:40:48;98774.59;;;24.37;37.83
34081;BME280;20358;50.272;19.026;2022-08-11T13:43:58;98775.34;;;24.21;39.16
34081;BME280;20358;50.272;19.026;2022-08-11T14:03:31;98821.66;;;24.14;47.66
34081;BME280;20358;50.272;19.026;2022-08-11T14:07:02;98851.84;;;22.83;51.92
34081;BME280;20358;50.272;19.026;2022-08-11T14:10:11;98856.72;;;22.04;54.66
34081;BME280;20358;50.272;19.026;2022-08-11T14:13:18;98871.34;;;21.42;56.42
34081;BME280;20358;50.272;19.026;2022-08-11T14:16:49;98870.97;;;21.07;57.77
34081;BME280;20358;50.272;19.026;2022-08-11T14:20:03;98883.44;;;20.97;58.63
34081;BME280;20358;50.272;19.026;2022-08-11T14:23:31;98885.88;;;20.70;58.29
34081;BME280;20358;50.272;19.026;2022-08-11T14:26:39;98892.25;;;20.58;58.40
34081;BME280;20358;50.272;19.026;2022-08-11T14:29:46;98899.16;;;20.40;58.78
34081;BME280;20358;50.272;19.026;2022-08-11T14:32:55;98914.81;;;20.12;58.87
34081;BME280;20358;50.272;19.026;2022-08-11T14:36:21;98914.94;;;19.90;59.32
34081;BME280;20358;50.272;19.026;2022-08-11T14:39:35;98917.22;;;19.63;59.19
34081;BME280;20358;50.272;19.026;2022-08-11T14:42:43;98903.09;;;19.51;60.78
34081;BME280;20358;50.272;19.026;2022-08-11T14:46:06;98908.94;;;19.45;61.88
34081;BME280;20358;50.272;19.026;2022-08-11T14:49:29;98900.84;;;19.47;61.21
34081;BME280;20358;50.272;19.026;2022-08-11T14:52:44;98886.06;;;19.54;61.83
34081;BME280;20358;50.272;19.026;2022-08-11T14:55:53;98899.72;;;19.60;62.58
34081;BME280;20358;50.272;19.026;2022-08-11T14:59:16;98892.69;;;19.71;62.15
34081;BME280;20358;50.272;19.026;2022-08-11T15:02:22;98880.69;;;19.76;61.41
34081;BME280;20358;50.272;19.026;2022-08-11T15:05:47;98880.44;;;19.79;61.04
34081;BME280;20358;50.272;19.026;2022-08-11T15:09:02;98876.28;;;19.86;60.79
34081;BME280;20358;50.272;19.026;2022-08-11T15:12:12;98865.69;;;19.96;60.56
34081;BME280;20358;50.272;19.026;2022-08-11T15:15:35;98860.72;;;20.02;60.51
34081;BME280;20358;50.272;19.026;2022-08-11T15:18:58;98866.84;;;20.03;60.20
34081;BME280;20358;50.272;19.026;2022-08-11T15:22:04;98888.22;;;20.12;60.39
34081;BME280;20358;50.272;19.026;2022-08-11T15:25:34;98882.28;;;20.30;61.27
34081;BME280;20358;50.272;19.026;2022-08-11T15:28:43;98893.78;;;20.51;60.75
34081;BME280;20358;50.272;19.026;2022-08-11T15:32:12;98891.47;;;20.67;60.13
34081;BME280;20358;50.272;19.026;2022-08-11T15:35:36;98872.88;;;20.86;59.63
34081;BME280;20358;50.272;19.026;2022-08-11T15:39:02;98877.22;;;21.36;58.57
34081;BME280;20358;50.272;19.026;2022-08-11T15:42:14;98866.72;;;22.02;57.73
34081;BME280;20358;50.272;19.026;2022-08-11T15:45:40;98861.47;;;22.20;56.10
34081;BME280;20358;50.272;19.026;2022-08-11T15:48:57;98873.13;;;22.28;56.97
34081;BME280;20358;50.272;19.026;2022-08-11T15:52:07;98865.66;;;22.32;56.32
34081;BME280;20358;50.272;19.026;2022-08-11T15:55:15;98865.31;;;22.44;56.24
34081;BME280;20358;50.272;19.026;2022-08-11T15:58:31;98858.97;;;22.92;55.21
34081;BME280;20358;50.272;19.026;2022-08-11T16:02:14;98863.09;;;23.04;53.14
34081;BME280;20358;50.272;19.026;2022-08-11T16:05:38;98865.25;;;23.63;53.88
34081;BME280;20358;50.272;19.026;2022-08-11T16:08:49;98859.78;;;24.59;52.49
34081;BME280;20358;50.272;19.026;2022-08-11T16:12:01;98853.06;;;25.39;49.94
34081;BME280;20358;50.272;19.026;2022-08-11T16:15:10;98864.19;;;26.00;48.08
34081;BME280;20358;50.272;19.026;2022-08-11T16:18:38;98864.47;;;26.46;46.91
34081;BME280;20358;50.272;19.026;2022-08-11T16:21:48;98869.44;;;26.65;45.46
34081;BME280;20358;50.272;19.026;2022-08-11T16:24:58;98869.44;;;26.73;45.31
34081;BME280;20358;50.272;19.026;2022-08-11T16:28:26;98869.47;;;27.04;44.78
34081;BME280;20358;50.272;19.026;2022-08-11T16:31:39;98864.63;;;27.30;44.41
34081;BME280;20358;50.272;19.026;2022-08-11T16:35:09;98862.03;;;27.44;44.00
34081;BME280;20358;50.272;19.026;2022-08-11T16:38:32;98858.56;;;27.59;43.73
34081;BME280;20358;50.272;19.026;2022-08-11T16:41:42;98853.50;;;27.78;43.45
34081;BME280;20358;50.272;19.026;2022-08-11T16:45:06;98844.59;;;27.86;43.46
34081;BME280;20358;50.272;19.026;2022-08-11T16:48:31;98845.38;;;28.09;42.64
34081;BME280;20358;50.272;19.026;2022-08-11T16:51:41;98846.03;;;28.26;43.06
34081;BME280;20358;50.272;19.026;2022-08-11T16:54:48;98829.72;;;28.27;42.59
34081;BME280;20358;50.272;19.026;2022-08-11T16:57:56;98838.53;;;28.21;42.50
34081;BME280;20358;50.272;19.026;2022-08-11T17:01:20;98836.78;;;27.45;42.08
34081;BME280;20358;50.272;19.026;2022-08-11T17:04:36;98834.03;;;26.53;43.01
34081;BME280;20358;50.272;19.026;2022-08-11T17:08:01;98834.13;;;25.73;44.69
34081;BME280;20358;50.272;19.026;2022-08-11T17:11:28;98827.28;;;25.04;45.46
34081;BME280;20358;50.272;19.026;2022-08-11T17:14:54;98825.00;;;24.41;46.13
34081;BME280;20358;50.272;19.026;2022-08-11T17:18:05;98824.38;;;23.96;47.04
34081;BME280;20358;50.272;19.026;2022-08-11T17:21:18;98827.56;;;23.56;48.11
34081;BME280;20358;50.272;19.026;2022-08-11T17:24:26;98820.50;;;23.20;48.48
34081;BME280;20358;50.272;19.026;2022-08-11T17:27:30;98823.81;;;22.87;49.12
34081;BME280;20358;50.272;19.026;2022-08-11T17:30:39;98819.28;;;22.60;49.37
34081;BME280;20358;50.272;19.026;2022-08-11T17:34:04;98823.50;;;22.35;49.70
34081;BME280;20358;50.272;19.026;2022-08-11T17:37:31;98822.72;;;22.06;50.19
34081;BME280;20358;50.272;19.026;2022-08-11T17:40:43;98826.44;;;21.76;50.86
34081;BME280;20358;50.272;19.026;2022-08-11T17:44:12;98826.16;;;21.51;51.92
34081;BME280;20358;50.272;19.026;2022-08-11T17:47:34;98824.47;;;21.30;52.78
34081;BME280;20358;50.272;19.026;2022-08-11T17:51:00;98827.38;;;21.18;53.08
34081;BME280;20358;50.272;19.026;2022-08-11T17:54:10;98833.13;;;21.04;53.68
34081;BME280;20358;50.272;19.026;2022-08-11T17:57:33;98812.63;;;20.85;53.21
34081;BME280;20358;50.272;19.026;2022-08-11T18:00:57;98813.41;;;20.76;53.64
34081;BME280;20358;50.272;19.026;2022-08-11T18:04:13;98814.25;;;20.67;53.42
34081;BME280;20358;50.272;19.026;2022-08-11T18:07:21;98820.09;;;20.51;53.86
34081;BME280;20358;50.272;19.026;2022-08-11T18:10:48;98815.97;;;20.17;55.51
34081;BME280;20358;50.272;19.026;2022-08-11T18:14:12;98814.84;;;19.89;56.61
34081;BME280;20358;50.272;19.026;2022-08-11T18:17:36;98821.16;;;19.68;57.11
34081;BME280;20358;50.272;19.026;2022-08-11T18:20:58;98820.00;;;19.49;58.22
34081;BME280;20358;50.272;19.026;2022-08-11T18:24:22;98825.81;;;19.43;59.30
34081;BME280;20358;50.272;19.026;2022-08-11T18:27:51;98825.78;;;19.23;60.64